This is the latest recevied weather packets stored in our database for station/object N0ZMJ-4. If no packets are shown the sender has not sent any weather packets the latest 10 day(s).
| Time | Temp. | Humidity | Pressure | Rain* | Wind** | Luminosity | Snow |
|---|---|---|---|---|---|---|---|
| 1777597503 | 8.33° C | 73% | 1014.9 hPa | 0 mm | - | - | - |
| 1777597203 | 8.33° C | 73% | 1014.8 hPa | 0 mm | - | - | - |
| 1777596903 | 8.33° C | 72% | 1014.9 hPa | 0 mm | - | - | - |
| 1777596603 | 8.33° C | 71% | 1014.9 hPa | 0 mm | - | - | - |
| 1777596303 | 8.33° C | 72% | 1015 hPa | 0 mm | - | - | - |
| 1777596003 | 8.89° C | 71% | 1015.1 hPa | 0 mm | - | - | - |
| 1777595703 | 8.89° C | 70% | 1015.1 hPa | 0 mm | - | - | - |
| 1777595403 | 8.89° C | 69% | 1015.1 hPa | 0 mm | - | - | - |
| 1777595103 | 8.89° C | 69% | 1015 hPa | 0 mm | - | - | - |
| 1777594803 | 8.89° C | 69% | 1015.1 hPa | 0 mm | - | - | - |
| 1777594503 | 9.44° C | 68% | 1015 hPa | 0 mm | - | - | - |
| 1777594203 | 8.89° C | 69% | 1015 hPa | 0 mm | - | - | - |
| 1777593903 | 8.89° C | 71% | 1015.1 hPa | 0 mm | - | - | - |
| 1777593603 | 8.89° C | 73% | 1015.2 hPa | 0 mm | - | - | - |
| 1777593303 | 8.33° C | 76% | 1015.2 hPa | 0 mm | - | - | - |
| 1777593003 | 8.33° C | 78% | 1015.2 hPa | 0 mm | - | - | - |
| 1777592703 | 8.33° C | 78% | 1015.3 hPa | 0 mm | - | - | - |
| 1777592403 | 8.33° C | 77% | 1015.6 hPa | 0 mm | - | - | - |
| 1777592103 | 8.33° C | 76% | 1015.5 hPa | 0 mm | - | - | - |
| 1777591803 | 8.33° C | 76% | 1015.5 hPa | 0 mm | - | - | - |
| 1777591503 | 8.89° C | 73% | 1015.5 hPa | 0 mm | - | - | - |
| 1777591203 | 10° C | 66% | 1015.5 hPa | 0 mm | - | - | - |
| 1777590903 | 10.56° C | 61% | 1015.4 hPa | 0 mm | - | - | - |
| 1777590603 | 11.11° C | 62% | 1015.3 hPa | 0 mm | - | - | - |
| 1777590303 | 11.11° C | 61% | 1015.2 hPa | 0 mm | - | - | - |
* Rain latest hour (hover to see other rain measurements)
** Current wind speed in m/s (hover to see current wind gust speed)